createdAt,value
2024-05-09T00:00:47.341Z,14.38
2024-05-09T00:03:16.023Z,14.27
2024-05-09T00:05:44.908Z,14.05
2024-05-09T00:08:13.905Z,12.43
2024-05-09T00:10:42.471Z,11.68
2024-05-09T00:13:11.566Z,13.65
2024-05-09T00:15:42.162Z,12.50
2024-05-09T00:18:10.732Z,14.70
2024-05-09T00:20:41.181Z,14.63
2024-05-09T00:23:10.608Z,16.60
2024-05-09T00:25:39.740Z,15.73
2024-05-09T00:28:08.484Z,12.95
2024-05-09T00:30:37.574Z,13.05
2024-05-09T00:33:10.333Z,15.52
2024-05-09T00:35:42.565Z,12.95
2024-05-09T00:38:11.656Z,15.10
2024-05-09T00:40:42.677Z,14.57
2024-05-09T00:43:13.714Z,15.07
2024-05-09T00:45:43.981Z,14.98
2024-05-09T00:48:18.859Z,15.00
2024-05-09T00:50:55.206Z,14.00
2024-05-09T00:53:23.760Z,14.57
2024-05-09T00:55:54.501Z,18.95
2024-05-09T00:58:25.582Z,22.75
2024-05-09T01:00:54.354Z,18.33
2024-05-09T01:03:25.191Z,20.65
2024-05-09T01:05:53.815Z,16.73
2024-05-09T01:08:22.369Z,17.83
2024-05-09T01:10:50.966Z,17.60
2024-05-09T01:13:19.519Z,17.48
2024-05-09T01:15:49.609Z,17.27
2024-05-09T01:18:18.456Z,16.17
2024-05-09T01:20:49.144Z,16.75
2024-05-09T01:23:19.717Z,15.98
2024-05-09T01:25:48.283Z,16.73
2024-05-09T01:28:17.075Z,16.40
2024-05-09T01:30:45.549Z,17.88
2024-05-09T01:33:14.519Z,17.98
2024-05-09T01:35:43.481Z,16.38
2024-05-09T01:38:12.684Z,20.40
2024-05-09T01:40:44.315Z,18.58
2024-05-09T01:43:12.844Z,23.33
2024-05-09T01:45:44.411Z,24.00
2024-05-09T01:48:12.996Z,23.90
2024-05-09T01:50:43.149Z,22.17
2024-05-09T01:53:13.735Z,25.65
2024-05-09T01:55:47.901Z,24.10
2024-05-09T01:58:16.334Z,21.58
2024-05-09T02:00:45.020Z,21.30
2024-05-09T02:03:17.730Z,19.17
2024-05-09T02:05:47.873Z,19.25
2024-05-09T02:08:18.685Z,22.38
2024-05-09T02:10:50.852Z,19.17
2024-05-09T02:13:19.603Z,19.98
2024-05-09T02:15:51.595Z,18.33
2024-05-09T02:18:20.216Z,19.27
2024-05-09T02:20:49.737Z,18.65
2024-05-09T02:23:21.283Z,19.33
2024-05-09T02:25:51.909Z,21.20
2024-05-09T02:28:22.330Z,19.23
2024-05-09T02:30:53.808Z,21.55
2024-05-09T02:33:22.617Z,20.17
2024-05-09T02:35:49.208Z,20.75
2024-05-09T02:38:17.771Z,20.10
2024-05-09T02:40:44.331Z,17.67
2024-05-09T02:43:15.092Z,18.52
2024-05-09T02:45:41.926Z,18.20
2024-05-09T02:48:13.366Z,19.80
2024-05-09T02:50:41.154Z,17.08
2024-05-09T02:53:10.321Z,18.67
2024-05-09T02:55:37.833Z,17.65
2024-05-09T02:58:06.719Z,20.73
2024-05-09T03:00:39.745Z,18.02
2024-05-09T03:03:13.285Z,19.80
2024-05-09T03:05:42.003Z,23.67
2024-05-09T03:08:11.057Z,19.88
2024-05-09T03:10:39.011Z,20.38
2024-05-09T03:13:09.404Z,20.98
2024-05-09T03:15:37.851Z,19.95
2024-05-09T03:18:07.630Z,19.17
2024-05-09T03:20:37.000Z,20.13
2024-05-09T03:23:10.179Z,21.60
2024-05-09T03:25:36.958Z,20.67
2024-05-09T03:28:05.844Z,21.60
2024-05-09T03:30:39.953Z,22.60
2024-05-09T03:33:17.720Z,22.60
2024-05-09T03:35:45.965Z,21.20
2024-05-09T03:38:17.430Z,22.50
2024-05-09T03:40:47.245Z,19.67
2024-05-09T03:43:16.507Z,21.13
2024-05-09T03:45:43.068Z,22.50
2024-05-09T03:48:15.275Z,22.77
2024-05-09T03:50:41.979Z,22.80
2024-05-09T03:53:12.536Z,23.63
2024-05-09T03:55:39.132Z,20.45
2024-05-09T03:58:07.981Z,20.05
2024-05-09T04:00:38.397Z,23.38
2024-05-09T04:03:11.076Z,22.30
2024-05-09T04:05:42.482Z,24.02
2024-05-09T04:08:12.241Z,26.58
2024-05-09T04:10:38.725Z,22.30
2024-05-09T04:13:07.318Z,23.35
2024-05-09T04:15:35.087Z,22.77
2024-05-09T04:18:06.338Z,21.38
2024-05-09T04:20:38.386Z,23.42
2024-05-09T04:23:13.864Z,20.58
2024-05-09T04:25:42.647Z,24.23
2024-05-09T04:28:11.237Z,23.25
2024-05-09T04:30:40.449Z,23.30
2024-05-09T04:33:13.033Z,21.23
2024-05-09T04:35:41.340Z,23.10
2024-05-09T04:38:12.361Z,19.90
2024-05-09T04:40:38.900Z,19.13
2024-05-09T04:43:09.250Z,22.92
2024-05-09T04:45:35.999Z,24.85
2024-05-09T04:48:04.737Z,20.52
2024-05-09T04:50:36.890Z,22.67
2024-05-09T04:53:08.769Z,24.63
2024-05-09T04:55:40.134Z,28.33
2024-05-09T04:58:09.893Z,25.58
2024-05-09T05:00:38.538Z,23.90
2024-05-09T05:03:12.338Z,27.15
2024-05-09T05:05:41.678Z,26.75
2024-05-09T05:08:13.696Z,25.42
2024-05-09T05:10:43.162Z,29.05
2024-05-09T05:13:22.232Z,26.92
2024-05-09T05:15:50.473Z,27.92
2024-05-09T05:18:19.425Z,25.27
2024-05-09T05:20:46.274Z,24.10
2024-05-09T05:23:16.780Z,24.20
2024-05-09T05:25:49.841Z,25.42
2024-05-09T05:28:18.918Z,24.20
2024-05-09T05:30:45.850Z,21.45
2024-05-09T05:33:15.691Z,22.38
2024-05-09T05:35:42.543Z,22.63
2024-05-09T05:38:11.834Z,23.35
2024-05-09T05:40:39.631Z,25.02
2024-05-09T05:43:17.116Z,22.30
2024-05-09T05:45:43.746Z,25.45
2024-05-09T05:48:12.492Z,20.48
2024-05-09T05:50:39.152Z,24.30
2024-05-09T05:53:10.094Z,23.77
2024-05-09T05:55:38.146Z,23.15
2024-05-09T05:58:07.064Z,22.08
2024-05-09T06:00:38.986Z,21.05
2024-05-09T06:03:10.147Z,23.27
2024-05-09T06:05:38.966Z,22.70
2024-05-09T06:08:08.549Z,20.08
2024-05-09T06:10:39.098Z,19.55
2024-05-09T06:13:09.825Z,22.83
2024-05-09T06:15:38.291Z,22.35
2024-05-09T06:18:07.549Z,19.58
2024-05-09T06:20:36.895Z,22.35
2024-05-09T06:23:07.209Z,21.95
2024-05-09T06:25:33.757Z,22.35
2024-05-09T06:30:37.120Z,21.23
2024-05-09T06:33:12.985Z,20.45
2024-05-09T06:35:41.733Z,23.52
2024-05-09T06:38:10.611Z,21.65
2024-05-09T06:40:40.533Z,19.80
2024-05-09T06:43:12.613Z,19.55
2024-05-09T06:45:39.156Z,19.02
2024-05-09T06:48:10.812Z,19.52
2024-05-09T06:50:39.085Z,20.02
2024-05-09T06:53:08.930Z,21.25
2024-05-09T06:55:35.861Z,18.55
2024-05-09T06:58:05.553Z,19.60
2024-05-09T07:00:38.593Z,20.40
2024-05-09T07:03:13.068Z,22.42
2024-05-09T07:05:47.701Z,19.95
2024-05-09T07:08:15.727Z,20.27
2024-05-09T07:10:44.474Z,20.95
2024-05-09T07:13:11.682Z,21.10
2024-05-09T07:15:40.467Z,17.63
2024-05-09T07:18:14.971Z,20.42
2024-05-09T07:20:43.696Z,18.73
2024-05-09T07:23:11.021Z,18.10
2024-05-09T07:25:40.226Z,17.15
2024-05-09T07:28:10.528Z,19.45
2024-05-09T07:30:38.973Z,19.00
2024-05-09T07:33:05.818Z,16.45
2024-05-09T07:35:36.770Z,19.08
2024-05-09T07:38:03.505Z,20.02
2024-05-09T07:40:36.140Z,17.73
2024-05-09T07:43:03.833Z,18.88
2024-05-09T07:52:23.298Z,17.15
2024-05-09T07:53:38.904Z,15.23
2024-05-09T07:56:10.428Z,14.50
2024-05-09T07:58:38.825Z,14.00
2024-05-09T08:01:07.441Z,17.33
2024-05-09T08:03:36.114Z,15.35
2024-05-09T08:06:02.854Z,17.00
2024-05-09T08:08:33.393Z,17.30
2024-05-09T08:11:02.915Z,15.10
2024-05-09T08:13:31.512Z,16.13
2024-05-09T08:15:58.224Z,14.95
2024-05-09T08:18:29.605Z,16.05
2024-05-09T08:20:56.440Z,17.50
2024-05-09T08:23:25.171Z,14.10
2024-05-09T08:25:53.737Z,15.20
2024-05-09T08:28:22.487Z,14.07
2024-05-09T08:30:49.158Z,15.38
2024-05-09T08:33:17.979Z,15.15
2024-05-09T08:35:44.564Z,14.45
2024-05-09T08:38:13.160Z,14.15
2024-05-09T08:40:41.128Z,14.75
2024-05-09T08:43:12.875Z,16.08
2024-05-09T08:48:10.365Z,15.30
2024-05-09T08:50:40.504Z,15.23
2024-05-09T08:53:09.624Z,15.38
2024-05-09T08:55:39.238Z,14.15
2024-05-09T08:58:16.449Z,12.30
2024-05-09T09:00:44.405Z,13.13
2024-05-09T09:03:18.510Z,12.57
2024-05-09T09:05:50.628Z,12.30
2024-05-09T09:08:21.735Z,11.73
2024-05-09T09:10:48.613Z,12.52
2024-05-09T09:13:19.251Z,11.45
2024-05-09T09:15:46.719Z,11.30
2024-05-09T09:18:16.531Z,12.77
2024-05-09T09:20:43.419Z,12.30
2024-05-09T09:23:12.034Z,12.50
2024-05-09T09:25:39.280Z,10.88
2024-05-09T09:28:09.108Z,11.10
2024-05-09T09:30:40.793Z,10.82
2024-05-09T09:33:10.969Z,10.80
2024-05-09T09:35:38.938Z,10.35
2024-05-09T09:38:09.432Z,11.20
2024-05-09T09:40:41.006Z,9.60
2024-05-09T09:43:16.609Z,9.77
2024-05-09T09:45:46.449Z,10.25
2024-05-09T09:48:16.488Z,11.65
2024-05-09T09:50:43.532Z,10.38
2024-05-09T09:53:12.268Z,9.93
2024-05-09T09:55:39.589Z,10.57
2024-05-09T09:58:10.842Z,9.93
2024-05-09T10:00:38.947Z,10.30
2024-05-09T10:03:09.855Z,10.48
2024-05-09T10:05:36.837Z,10.75
2024-05-09T10:08:07.663Z,11.23
2024-05-09T10:10:37.723Z,13.60
2024-05-09T10:13:07.114Z,10.57
2024-05-09T10:15:44.734Z,10.50
2024-05-09T10:18:15.697Z,9.35
2024-05-09T10:20:42.546Z,10.60
2024-05-09T10:23:27.298Z,9.40
2024-05-09T10:26:00.476Z,9.32
2024-05-09T10:28:29.247Z,10.10
2024-05-09T10:31:08.674Z,11.25
2024-05-09T10:33:41.087Z,9.10
2024-05-09T10:36:11.547Z,11.45
2024-05-09T10:38:41.521Z,9.25
2024-05-09T10:41:08.517Z,10.13
2024-05-09T10:43:40.528Z,8.70
2024-05-09T10:46:07.408Z,10.20
2024-05-09T10:48:36.454Z,8.88
2024-05-09T10:51:05.338Z,8.40
2024-05-09T10:53:33.896Z,8.98
2024-05-09T10:56:01.327Z,10.85
2024-05-09T10:58:31.032Z,8.73
2024-05-09T11:00:57.939Z,9.88
2024-05-09T11:03:29.810Z,9.00
2024-05-09T11:05:57.094Z,8.63
2024-05-09T11:08:29.434Z,10.38
2024-05-09T11:13:31.198Z,12.00
2024-05-09T11:16:01.941Z,9.02
2024-05-09T11:18:35.110Z,9.05
2024-05-09T11:21:11.422Z,8.75
2024-05-09T11:23:42.285Z,8.80
2024-05-09T11:26:10.054Z,9.30
2024-05-09T11:28:38.655Z,9.02
2024-05-09T11:31:06.208Z,10.07
2024-05-09T11:33:38.133Z,9.43
2024-05-09T11:36:08.086Z,9.85
2024-05-09T11:38:36.945Z,8.73
2024-05-09T11:41:07.640Z,8.75
2024-05-09T11:43:34.176Z,7.82
2024-05-09T11:46:03.606Z,12.40
2024-05-09T11:48:30.956Z,9.05
2024-05-09T11:50:59.657Z,6.85
2024-05-09T11:53:27.451Z,9.52
2024-05-09T11:55:55.964Z,7.95
2024-05-09T11:58:24.489Z,7.88
2024-05-09T12:00:53.110Z,7.65
2024-05-09T12:03:20.119Z,8.23
2024-05-09T12:05:48.773Z,7.38
2024-05-09T12:08:15.348Z,7.82
2024-05-09T12:10:44.081Z,9.27
2024-05-09T12:13:10.700Z,7.65
2024-05-09T12:15:43.442Z,6.95
2024-05-09T12:18:10.040Z,8.18
2024-05-09T12:20:40.074Z,8.05
2024-05-09T12:23:08.913Z,7.25
2024-05-09T12:25:39.045Z,7.43
2024-05-09T12:28:06.391Z,7.57
2024-05-09T12:30:40.473Z,8.35
2024-05-09T12:33:13.922Z,7.35
2024-05-09T12:35:45.411Z,7.20
2024-05-09T12:38:14.193Z,7.15
2024-05-09T12:40:44.042Z,8.35
2024-05-09T12:43:11.424Z,7.35
2024-05-09T12:45:40.926Z,6.32
2024-05-09T12:48:13.481Z,7.13
2024-05-09T12:50:40.565Z,6.28
2024-05-09T12:53:09.292Z,6.88
2024-05-09T12:55:44.085Z,7.40
2024-05-09T12:58:17.947Z,6.53
2024-05-09T13:00:44.822Z,6.15
2024-05-09T13:03:15.847Z,6.47
2024-05-09T13:05:43.926Z,8.63
2024-05-09T13:08:13.190Z,6.75
2024-05-09T13:10:39.881Z,8.23
2024-05-09T13:13:08.586Z,9.27
2024-05-09T13:15:38.144Z,7.78
2024-05-09T13:18:10.464Z,8.43
2024-05-09T13:20:39.051Z,8.02
2024-05-09T13:23:08.920Z,8.63
2024-05-09T13:25:37.892Z,7.95
2024-05-09T13:28:07.896Z,8.55
2024-05-09T13:30:40.785Z,7.35
2024-05-09T13:33:12.133Z,6.72
2024-05-09T13:35:45.737Z,7.20
2024-05-09T13:38:18.145Z,8.93
2024-05-09T13:40:45.149Z,8.07
2024-05-09T13:43:14.081Z,9.85
2024-05-09T13:45:40.642Z,6.68
2024-05-09T13:48:09.904Z,8.10
2024-05-09T13:50:37.208Z,6.13
2024-05-09T13:53:08.931Z,6.80
2024-05-09T13:55:37.590Z,8.80
2024-05-09T13:58:06.694Z,8.48
2024-05-09T14:00:43.901Z,8.88
2024-05-09T14:03:18.407Z,7.07
2024-05-09T14:05:46.692Z,8.52
2024-05-09T14:08:18.944Z,8.55
2024-05-09T14:10:46.137Z,8.00
2024-05-09T14:13:14.949Z,10.70
2024-05-09T14:15:41.572Z,9.35
2024-05-09T14:18:13.157Z,10.55
2024-05-09T14:20:40.879Z,10.05
2024-05-09T14:23:09.577Z,7.95
2024-05-09T14:25:41.778Z,8.52
2024-05-09T14:28:14.696Z,7.85
2024-05-09T14:30:41.490Z,9.32
2024-05-09T14:33:10.560Z,8.60
2024-05-09T14:35:37.930Z,7.43
2024-05-09T14:38:09.359Z,8.73
2024-05-09T14:40:42.457Z,7.95
2024-05-09T14:43:21.616Z,9.15
2024-05-09T14:45:48.104Z,7.20
2024-05-09T14:48:19.175Z,8.43
2024-05-09T14:50:47.687Z,8.40
2024-05-09T14:53:14.253Z,9.27
2024-05-09T14:55:44.804Z,8.27
2024-05-09T14:58:11.904Z,11.07
2024-05-09T15:00:46.149Z,9.23
2024-05-09T15:03:16.555Z,9.93
2024-05-09T15:05:45.507Z,8.43
2024-05-09T15:08:12.283Z,9.23
2024-05-09T15:10:41.083Z,8.43
2024-05-09T15:13:11.408Z,7.10
2024-05-09T15:15:50.079Z,8.82
2024-05-09T15:18:16.794Z,7.63
2024-05-09T15:20:46.127Z,7.05
2024-05-09T15:23:12.929Z,6.53
2024-05-09T15:25:43.678Z,6.13
2024-05-09T15:28:15.255Z,8.00
2024-05-09T15:30:46.242Z,6.90
2024-05-09T15:33:13.719Z,7.78
2024-05-09T15:35:42.616Z,11.43
2024-05-09T15:38:09.563Z,6.35
2024-05-09T15:40:40.493Z,7.18
2024-05-09T15:43:08.858Z,7.53
2024-05-09T15:45:42.868Z,9.68
2024-05-09T15:48:10.103Z,9.57
2024-05-09T15:50:41.556Z,9.35
2024-05-09T15:53:10.551Z,9.07
2024-05-09T15:55:39.429Z,8.88
2024-05-09T15:58:07.099Z,8.32
2024-05-09T16:00:40.052Z,10.73
2024-05-09T16:03:14.702Z,8.25
2024-05-09T16:05:47.141Z,9.13
2024-05-09T16:10:45.621Z,5.70
2024-05-09T16:13:13.306Z,6.30
2024-05-09T16:15:42.090Z,9.45
2024-05-09T16:18:10.700Z,6.43
2024-05-09T16:20:41.689Z,9.77
2024-05-09T16:23:10.004Z,9.68
2024-05-09T16:25:38.707Z,8.75
2024-05-09T16:28:08.762Z,9.50
2024-05-09T16:30:39.619Z,8.40
2024-05-09T16:33:06.665Z,8.10
2024-05-09T16:35:37.483Z,9.35
2024-05-09T16:38:05.285Z,7.25
2024-05-09T16:40:38.681Z,7.88
2024-05-09T16:43:07.869Z,7.82
2024-05-09T16:45:37.094Z,6.85
2024-05-09T16:48:04.757Z,8.50
2024-05-09T16:50:35.356Z,7.53
2024-05-09T16:53:05.741Z,8.32
2024-05-09T16:55:35.159Z,8.00
2024-05-09T16:58:02.581Z,9.73
2024-05-09T17:00:39.955Z,7.22
2024-05-09T17:03:10.616Z,8.82
2024-05-09T17:05:40.225Z,9.82
2024-05-09T17:08:09.166Z,8.48
2024-05-09T17:10:37.782Z,8.60
2024-05-09T17:13:09.426Z,6.85
2024-05-09T17:15:38.158Z,7.85
2024-05-09T17:18:07.698Z,9.15
2024-05-09T17:20:36.725Z,7.88
2024-05-09T17:23:11.709Z,6.80
2024-05-09T17:25:40.318Z,9.77
2024-05-09T17:28:08.983Z,7.10
2024-05-09T17:30:38.165Z,9.73
2024-05-09T17:33:10.235Z,8.07
2024-05-09T17:35:37.908Z,7.78
2024-05-09T17:38:09.729Z,10.95
2024-05-09T17:40:38.043Z,8.20
2024-05-09T17:43:10.854Z,7.95
2024-05-09T17:45:37.964Z,8.43
2024-05-09T17:48:07.129Z,6.38
2024-05-09T17:50:36.273Z,8.07
2024-05-09T17:53:06.832Z,7.70
2024-05-09T17:55:33.897Z,9.30
2024-05-09T17:58:04.738Z,9.93
2024-05-09T18:00:38.964Z,8.60
2024-05-09T18:03:12.125Z,10.80
2024-05-09T18:05:40.219Z,9.20
2024-05-09T18:08:09.738Z,9.23
2024-05-09T18:10:39.408Z,8.25
2024-05-09T18:13:09.813Z,7.93
2024-05-09T18:15:39.043Z,8.52
2024-05-09T18:18:08.370Z,8.13
2024-05-09T18:20:42.302Z,11.00
2024-05-09T18:23:16.106Z,10.23
2024-05-09T18:25:44.012Z,10.82
2024-05-09T18:28:12.642Z,11.63
2024-05-09T18:30:43.837Z,11.80
2024-05-09T18:33:12.809Z,9.88
2024-05-09T18:35:41.745Z,10.30
2024-05-09T18:38:10.822Z,9.48
2024-05-09T18:40:38.542Z,11.23
2024-05-09T18:43:09.248Z,9.85
2024-05-09T18:45:37.494Z,8.73
2024-05-09T18:48:10.466Z,8.75
2024-05-09T18:50:40.153Z,9.35
2024-05-09T18:53:11.354Z,12.93
2024-05-09T18:55:38.986Z,10.02
2024-05-09T18:58:10.106Z,10.68
2024-05-09T19:00:41.433Z,10.02
2024-05-09T19:03:15.359Z,9.73
2024-05-09T19:05:43.705Z,8.68
2024-05-09T19:08:14.029Z,8.95
2024-05-09T19:10:40.792Z,8.40
2024-05-09T19:13:12.613Z,9.18
2024-05-09T19:15:43.234Z,8.90
2024-05-09T19:18:15.436Z,9.98
2024-05-09T19:20:42.292Z,8.95
2024-05-09T19:23:10.980Z,8.85
2024-05-09T19:25:37.395Z,9.27
2024-05-09T19:28:06.637Z,8.98
2024-05-09T19:30:39.024Z,9.82
2024-05-09T19:33:14.190Z,10.27
2024-05-09T19:35:43.284Z,8.73
2024-05-09T19:38:17.129Z,8.70
2024-05-09T19:40:46.662Z,11.00
2024-05-09T19:43:15.890Z,15.05
2024-05-09T19:45:42.965Z,10.02
2024-05-09T19:48:11.595Z,10.88
2024-05-09T19:50:43.063Z,9.73
2024-05-09T19:53:15.641Z,9.65
2024-05-09T19:55:43.791Z,12.00
2024-05-09T19:58:12.969Z,10.95
2024-05-09T20:00:42.210Z,9.80
2024-05-09T20:03:13.426Z,10.68
2024-05-09T20:05:41.741Z,10.23
2024-05-09T20:08:10.227Z,10.05
2024-05-09T20:10:38.747Z,11.07
2024-05-09T20:13:08.181Z,11.40
2024-05-09T20:15:35.904Z,9.25
2024-05-09T20:18:04.957Z,11.98
2024-05-09T20:20:37.969Z,10.32
2024-05-09T20:23:10.274Z,10.30
2024-05-09T20:25:39.116Z,13.68
2024-05-09T20:28:10.267Z,12.27
2024-05-09T20:30:37.180Z,13.88
2024-05-09T20:33:08.240Z,12.95
2024-05-09T20:35:35.779Z,11.25
2024-05-09T20:40:35.234Z,12.45
2024-05-09T20:43:09.733Z,11.88
2024-05-09T20:45:36.925Z,12.88
2024-05-09T20:48:06.145Z,13.98
2024-05-09T20:50:38.452Z,13.18
2024-05-09T20:53:10.481Z,14.18
2024-05-09T20:55:39.945Z,13.15
2024-05-09T20:58:10.845Z,13.20
2024-05-09T21:00:41.117Z,15.45
2024-05-09T21:05:40.561Z,11.52
2024-05-09T21:08:09.710Z,12.77
2024-05-09T21:10:36.981Z,14.50
2024-05-09T21:13:07.148Z,12.20
2024-05-09T21:15:36.480Z,13.10
2024-05-09T21:18:05.509Z,15.13
2024-05-09T21:20:33.780Z,14.05
2024-05-09T21:23:04.776Z,14.55
2024-05-09T21:25:31.482Z,13.88
2024-05-09T21:28:00.470Z,14.23
2024-05-09T21:30:33.073Z,15.90
2024-05-09T21:33:13.079Z,12.98
2024-05-09T21:35:44.523Z,12.98
2024-05-09T21:38:17.622Z,17.20
2024-05-09T21:40:44.435Z,14.43
2024-05-09T21:43:13.656Z,15.65
2024-05-09T21:45:40.344Z,13.93
2024-05-09T21:48:13.749Z,13.82
2024-05-09T21:50:42.265Z,15.60
2024-05-09T21:53:11.932Z,14.88
2024-05-09T21:55:38.803Z,14.07
2024-05-09T21:58:07.320Z,14.93
2024-05-09T22:00:37.846Z,17.27
2024-05-09T22:03:13.415Z,14.60
2024-05-09T22:05:42.811Z,14.60
2024-05-09T22:08:11.415Z,14.20
2024-05-09T22:10:37.952Z,16.25
2024-05-09T22:15:34.855Z,16.98
2024-05-09T22:18:03.632Z,14.80
2024-05-09T22:20:38.268Z,15.30
2024-05-09T22:23:08.763Z,15.77
2024-05-09T22:25:35.597Z,15.60
2024-05-09T22:28:04.674Z,15.85
2024-05-09T22:30:36.050Z,17.10
2024-05-09T22:33:08.294Z,15.07
2024-05-09T22:35:37.998Z,13.90
2024-05-09T22:38:06.815Z,14.45
2024-05-09T22:40:42.840Z,14.68
2024-05-09T22:43:19.252Z,17.48
2024-05-09T22:45:46.388Z,15.95
2024-05-09T22:48:15.558Z,14.13
2024-05-09T22:50:44.558Z,14.45
2024-05-09T22:53:13.056Z,15.88
2024-05-09T22:55:39.487Z,16.63
2024-05-09T22:58:08.224Z,14.75
2024-05-09T23:00:35.186Z,16.15
2024-05-09T23:03:04.448Z,16.02
2024-05-09T23:05:31.482Z,15.10
2024-05-09T23:08:02.284Z,14.98
2024-05-09T23:10:35.199Z,15.07
2024-05-09T23:13:07.578Z,15.05
2024-05-09T23:15:35.492Z,15.85
2024-05-09T23:18:07.704Z,12.75
2024-05-09T23:20:38.492Z,16.33
2024-05-09T23:23:11.996Z,13.63
2024-05-09T23:25:40.348Z,13.27
2024-05-09T23:28:09.263Z,13.63
2024-05-09T23:30:39.078Z,13.70
2024-05-09T23:33:11.673Z,13.02
2024-05-09T23:35:38.647Z,15.13
2024-05-09T23:38:07.158Z,13.48
2024-05-09T23:40:39.604Z,13.18
2024-05-09T23:43:11.848Z,14.10
2024-05-09T23:45:39.404Z,15.10
2024-05-09T23:48:08.742Z,14.02
2024-05-09T23:50:37.941Z,13.70
2024-05-09T23:53:11.375Z,15.35
2024-05-09T23:55:40.105Z,16.75
2024-05-09T23:58:09.300Z,14.75
